Terminal Aerodrome Forecast
Issued by NWS

Home | Current Version | Previous Version | Text Only | Print | Product List | Glossary On
Versions: 1 2 3 4 5 6 7 8 9 10 11 12 13
818
FTUS43 KABR 301125
TAFMBG
TAF
KMBG 301125Z 3012/0112 VRB03KT P6SM SCT250
     FM301400 04007KT P6SM FEW200
     FM301700 04013G21KT P6SM FEW250
     FM010300 04008KT P6SM FEW250=

USA.gov is the U.S. government's official web portal to all federal, state and local government web resources and services.